createdAt,value
2019-03-24T00:00:49.864Z,102840.17
2019-03-24T00:03:17.851Z,102841.41
2019-03-24T00:05:52.409Z,102746.31
2019-03-24T00:08:17.384Z,102833.25
2019-03-24T00:10:45.377Z,102836.03
2019-03-24T00:13:13.366Z,102830.77
2019-03-24T00:15:41.366Z,102833.23
2019-03-24T00:18:09.385Z,102837.08
2019-03-24T00:20:37.370Z,102828.62
2019-03-24T00:23:05.347Z,102830.22
2019-03-24T00:25:33.342Z,102820.72
2019-03-24T00:28:01.372Z,102810.89
2019-03-24T00:30:29.393Z,102814.13
2019-03-24T00:32:57.365Z,102808.67
2019-03-24T00:35:25.499Z,102818.98
2019-03-24T00:37:53.598Z,102819.02
2019-03-24T00:40:21.646Z,102824.87
2019-03-24T00:42:49.708Z,102822.65
2019-03-24T00:45:17.711Z,102816.34
2019-03-24T00:47:45.715Z,102816.00
2019-03-24T00:50:15.388Z,102812.67
2019-03-24T00:52:44.857Z,102804.66
2019-03-24T00:55:12.888Z,102806.98
2019-03-24T00:57:40.898Z,102808.61
2019-03-24T01:00:09.663Z,102801.64
2019-03-24T01:02:37.657Z,102799.52
2019-03-24T01:05:05.834Z,102795.28
2019-03-24T01:07:33.886Z,102806.08
2019-03-24T01:10:01.880Z,102799.32
2019-03-24T01:12:29.858Z,102801.95
2019-03-24T01:14:57.870Z,102794.80
2019-03-24T01:17:25.883Z,102788.08
2019-03-24T01:19:53.859Z,102779.17
2019-03-24T01:22:21.838Z,102650.68
2019-03-24T01:24:49.813Z,102780.16
2019-03-24T01:27:17.802Z,102786.13
2019-03-24T01:29:45.806Z,102790.62
2019-03-24T01:32:16.583Z,102782.70
2019-03-24T01:34:46.747Z,102783.19
2019-03-24T01:37:14.734Z,102776.92
2019-03-24T01:39:42.725Z,102776.88
2019-03-24T01:42:10.723Z,102785.22
2019-03-24T01:44:38.726Z,102791.31
2019-03-24T01:47:06.889Z,102789.02
2019-03-24T01:49:34.936Z,102778.98
2019-03-24T01:52:02.927Z,102775.16
2019-03-24T01:54:30.899Z,102772.77
2019-03-24T01:56:58.887Z,102779.77
2019-03-24T01:59:26.894Z,102784.79
2019-03-24T02:01:54.871Z,102784.55
2019-03-24T02:04:22.939Z,102782.11
2019-03-24T02:06:50.918Z,102782.91
2019-03-24T02:13:10.955Z,102768.85
2019-03-24T02:15:38.949Z,102765.09
2019-03-24T02:18:06.932Z,102768.38
2019-03-24T02:20:34.959Z,102775.81
2019-03-24T02:23:02.946Z,102768.00
2019-03-24T02:25:30.982Z,102754.48
2019-03-24T02:27:59.066Z,102752.86
2019-03-24T02:30:27.068Z,102756.84
2019-03-24T02:32:55.055Z,102768.73
2019-03-24T02:35:23.059Z,102598.07
2019-03-24T02:37:51.059Z,102770.42
2019-03-24T02:40:19.079Z,102759.12
2019-03-24T02:42:50.081Z,102756.91
2019-03-24T02:45:25.832Z,102747.83
2019-03-24T02:47:51.261Z,102650.13
2019-03-24T02:50:19.318Z,102761.97
2019-03-24T02:52:47.320Z,102762.35
2019-03-24T02:55:15.586Z,102767.69
2019-03-24T02:57:43.603Z,102776.43
2019-03-24T03:00:11.589Z,102769.73
2019-03-24T03:02:39.631Z,102767.14
2019-03-24T03:05:08.391Z,102771.05
2019-03-24T03:07:36.503Z,102762.23
2019-03-24T03:10:04.999Z,102761.05
2019-03-24T03:12:32.995Z,102757.68
2019-03-24T03:15:00.970Z,102627.32
2019-03-24T03:17:28.965Z,102741.41
2019-03-24T03:19:56.973Z,102743.93
2019-03-24T03:22:25.127Z,102734.27
2019-03-24T03:24:54.860Z,102744.84
2019-03-24T03:27:24.268Z,102739.08
2019-03-24T03:29:52.267Z,102737.85
2019-03-24T03:32:20.348Z,102738.33
2019-03-24T03:34:48.327Z,102734.23
2019-03-24T03:37:16.430Z,102733.81
2019-03-24T03:39:44.401Z,102733.09
2019-03-24T03:42:12.552Z,102723.49
2019-03-24T03:44:40.525Z,102724.83
2019-03-24T03:47:08.514Z,102719.10
2019-03-24T03:49:36.493Z,102710.13
2019-03-24T03:52:04.463Z,102713.64
2019-03-24T03:54:32.496Z,102710.52
2019-03-24T03:57:00.637Z,102705.58
2019-03-24T03:59:28.632Z,102704.75
2019-03-24T04:01:56.715Z,102706.89
2019-03-24T04:04:25.395Z,102708.76
2019-03-24T04:06:53.396Z,102709.62
2019-03-24T04:09:23.395Z,102702.03
2019-03-24T04:11:51.258Z,102695.82
2019-03-24T04:14:19.340Z,102692.67
2019-03-24T04:16:47.339Z,102695.36
2019-03-24T04:19:15.399Z,102689.09
2019-03-24T04:21:43.386Z,102682.88
2019-03-24T04:24:11.397Z,102685.52
2019-03-24T04:26:39.367Z,102693.52
2019-03-24T04:29:07.368Z,102698.97
2019-03-24T04:31:35.375Z,102692.19
2019-03-24T04:34:03.384Z,102697.91
2019-03-24T04:36:31.486Z,102696.62
2019-03-24T04:38:59.470Z,102686.41
2019-03-24T04:41:27.522Z,102693.52
2019-03-24T04:43:55.509Z,102691.29
2019-03-24T04:46:23.592Z,102696.69
2019-03-24T04:48:53.186Z,102693.41
2019-03-24T04:51:22.424Z,102689.73
2019-03-24T04:53:50.520Z,102694.44
2019-03-24T04:56:18.502Z,102688.72
2019-03-24T04:58:46.710Z,102688.23
2019-03-24T05:01:14.698Z,102697.89
2019-03-24T05:03:42.686Z,102693.86
2019-03-24T05:06:10.679Z,102692.97
2019-03-24T05:08:38.931Z,102707.68
2019-03-24T05:11:06.895Z,102694.84
2019-03-24T05:13:34.895Z,102692.62
2019-03-24T05:16:02.875Z,102692.29
2019-03-24T05:18:30.857Z,102688.26
2019-03-24T05:20:58.939Z,102677.06
2019-03-24T05:23:26.926Z,102671.27
2019-03-24T05:25:54.953Z,102673.04
2019-03-24T05:28:22.929Z,102677.11
2019-03-24T05:30:50.934Z,102678.42
2019-03-24T05:33:24.907Z,102681.56
2019-03-24T05:35:52.878Z,102682.88
2019-03-24T05:38:20.858Z,102680.67
2019-03-24T05:40:48.822Z,102679.34
2019-03-24T05:43:16.854Z,102672.22
2019-03-24T05:45:44.863Z,102678.91
2019-03-24T05:48:12.878Z,102671.33
2019-03-24T05:50:40.860Z,102676.70
2019-03-24T05:53:08.859Z,102678.47
2019-03-24T05:55:36.990Z,102679.34
2019-03-24T05:58:05.014Z,102679.81
2019-03-24T06:00:32.987Z,102680.67
2019-03-24T06:03:00.966Z,102677.13
2019-03-24T06:05:28.950Z,102674.88
2019-03-24T06:07:56.933Z,102622.91
2019-03-24T06:10:24.902Z,102667.27
2019-03-24T06:12:54.160Z,102669.52
2019-03-24T06:15:27.502Z,102655.60
2019-03-24T06:17:55.514Z,102672.60
2019-03-24T06:20:23.575Z,102669.44
2019-03-24T06:22:51.557Z,102663.67
2019-03-24T06:25:19.823Z,102666.36
2019-03-24T06:27:48.058Z,102668.05
2019-03-24T06:30:16.065Z,102659.63
2019-03-24T06:32:44.073Z,102652.50
2019-03-24T06:35:12.060Z,102652.47
2019-03-24T06:37:40.103Z,102663.69
2019-03-24T06:40:08.113Z,102657.40
2019-03-24T06:42:36.114Z,102647.13
2019-03-24T06:45:04.254Z,102644.89
2019-03-24T06:47:32.394Z,102651.99
2019-03-24T06:50:00.367Z,102652.88
2019-03-24T06:52:31.601Z,102652.05
2019-03-24T06:55:02.179Z,102656.52
2019-03-24T06:57:30.214Z,102648.47
2019-03-24T06:59:58.201Z,102647.19
2019-03-24T07:02:26.206Z,102540.93
2019-03-24T07:04:54.210Z,102620.72
2019-03-24T07:07:22.286Z,102629.63
2019-03-24T07:09:50.278Z,102626.55
2019-03-24T07:12:18.271Z,102627.00
2019-03-24T07:14:46.531Z,102626.12
2019-03-24T07:17:14.558Z,102632.88
2019-03-24T07:19:42.537Z,102635.98
2019-03-24T07:22:10.542Z,102636.84
2019-03-24T07:24:38.515Z,102544.95
2019-03-24T07:27:06.527Z,102636.41
2019-03-24T07:29:34.494Z,102640.92
2019-03-24T07:32:02.482Z,102629.27
2019-03-24T07:34:38.823Z,102635.09
2019-03-24T07:37:06.826Z,102640.45
2019-03-24T07:39:35.028Z,102643.16
2019-03-24T07:42:03.051Z,102635.54
2019-03-24T07:44:31.070Z,102633.77
2019-03-24T07:46:59.116Z,102628.84
2019-03-24T07:49:27.090Z,102624.33
2019-03-24T07:51:55.084Z,102631.95
2019-03-24T07:54:23.068Z,102629.72
2019-03-24T07:56:51.063Z,102630.60
2019-03-24T07:59:19.038Z,102623.03
2019-03-24T08:01:47.019Z,102615.42
2019-03-24T08:04:15.012Z,102523.17
2019-03-24T08:06:42.981Z,102612.27
2019-03-24T08:09:13.150Z,102618.09
2019-03-24T08:11:58.887Z,102610.48
2019-03-24T08:14:26.903Z,102612.73
2019-03-24T08:16:54.891Z,102606.45
2019-03-24T08:19:22.886Z,102607.36
2019-03-24T08:21:50.918Z,102607.80
2019-03-24T08:24:18.899Z,102587.19
2019-03-24T08:26:47.015Z,102582.70
2019-03-24T08:29:15.022Z,102603.73
2019-03-24T08:31:43.005Z,102601.50
2019-03-24T08:34:11.012Z,102605.55
2019-03-24T08:36:39.055Z,102594.80
2019-03-24T08:39:07.078Z,102594.77
2019-03-24T08:41:35.122Z,102593.44
2019-03-24T08:44:03.183Z,102598.80
2019-03-24T08:46:33.623Z,102596.15
2019-03-24T08:49:01.635Z,102590.30
2019-03-24T08:51:29.681Z,102586.76
2019-03-24T08:53:57.667Z,102585.38
2019-03-24T08:56:27.743Z,102582.69
2019-03-24T08:58:55.717Z,102569.24
2019-03-24T09:01:23.739Z,102576.83
2019-03-24T09:03:51.762Z,102574.12
2019-03-24T09:06:19.774Z,102566.03
2019-03-24T09:08:49.011Z,102562.89
2019-03-24T09:11:17.207Z,102553.98
2019-03-24T09:13:45.262Z,102540.05
2019-03-24T09:16:13.253Z,102546.34
2019-03-24T09:18:51.707Z,102539.22
2019-03-24T09:21:14.018Z,102545.47
2019-03-24T09:23:43.269Z,102531.13
2019-03-24T09:26:11.214Z,102523.01
2019-03-24T09:28:39.235Z,102520.30
2019-03-24T09:31:07.282Z,102517.55
2019-03-24T09:33:36.395Z,102525.18
2019-03-24T09:36:04.489Z,102520.72
2019-03-24T09:38:32.463Z,102527.52
2019-03-24T09:41:00.445Z,102525.69
2019-03-24T09:43:28.442Z,102489.42
2019-03-24T09:45:56.455Z,102515.28
2019-03-24T09:48:24.439Z,102514.89
2019-03-24T09:50:52.422Z,102518.45
2019-03-24T09:53:20.426Z,102512.64
2019-03-24T09:55:48.414Z,102513.97
2019-03-24T09:58:16.572Z,102518.05
2019-03-24T10:00:46.823Z,102513.53
2019-03-24T10:03:14.358Z,102514.87
2019-03-24T10:05:42.359Z,102508.99
2019-03-24T10:08:10.351Z,102505.80
2019-03-24T10:10:38.409Z,102505.89
2019-03-24T10:13:06.397Z,102492.69
2019-03-24T10:15:34.402Z,102475.27
2019-03-24T10:18:02.429Z,102470.42
2019-03-24T10:20:30.442Z,102455.64
2019-03-24T10:22:58.432Z,102449.20
2019-03-24T10:25:26.415Z,102442.98
2019-03-24T10:27:54.414Z,102443.90
2019-03-24T10:30:22.431Z,102450.98
2019-03-24T10:32:50.410Z,102441.77
2019-03-24T10:35:18.398Z,102442.53
2019-03-24T10:37:46.387Z,102252.20
2019-03-24T10:40:28.144Z,102440.37
2019-03-24T10:42:47.430Z,102434.41
2019-03-24T10:45:15.539Z,102437.62
2019-03-24T10:47:43.879Z,102431.69
2019-03-24T10:50:14.306Z,102424.05
2019-03-24T10:52:42.274Z,102427.19
2019-03-24T10:55:10.488Z,102433.98
2019-03-24T10:57:38.525Z,102436.64
2019-03-24T11:00:07.204Z,102431.07
2019-03-24T11:02:35.219Z,102424.36
2019-03-24T11:05:03.242Z,102437.44
2019-03-24T11:07:31.304Z,102429.42
2019-03-24T11:09:59.482Z,102424.73
2019-03-24T11:12:27.569Z,102424.23
2019-03-24T11:14:56.806Z,102422.19
2019-03-24T11:17:24.851Z,102422.09
2019-03-24T11:19:53.000Z,102418.35
2019-03-24T11:22:21.187Z,102406.78
2019-03-24T11:24:49.198Z,102399.23
2019-03-24T11:27:17.231Z,102403.46
2019-03-24T11:29:45.255Z,102398.54
2019-03-24T11:32:13.242Z,102389.03
2019-03-24T11:34:41.219Z,102385.19
2019-03-24T11:37:09.278Z,102378.48
2019-03-24T11:39:37.395Z,102381.76
2019-03-24T11:42:05.398Z,102377.61
2019-03-24T11:44:34.815Z,102371.36
2019-03-24T11:47:03.054Z,102373.91
2019-03-24T11:49:31.189Z,102240.69
2019-03-24T11:51:59.259Z,102369.53
2019-03-24T11:54:28.718Z,102359.48
2019-03-24T11:57:01.707Z,102357.50
2019-03-24T11:59:30.141Z,102360.20
2019-03-24T12:01:58.341Z,102355.14
2019-03-24T12:04:26.358Z,102354.00
2019-03-24T12:06:55.475Z,102343.58
2019-03-24T12:09:23.890Z,102336.36
2019-03-24T12:11:52.096Z,102339.50
2019-03-24T12:14:20.094Z,102328.83
2019-03-24T12:16:48.158Z,102323.98
2019-03-24T12:19:16.437Z,102325.72
2019-03-24T12:21:44.700Z,102326.98
2019-03-24T12:24:12.711Z,102325.94
2019-03-24T12:26:40.867Z,102318.98
2019-03-24T12:29:09.362Z,102315.77
2019-03-24T12:31:38.542Z,102304.55
2019-03-24T12:34:10.969Z,102312.53
2019-03-24T12:36:39.047Z,102303.12
2019-03-24T12:39:07.377Z,102314.81
2019-03-24T12:41:35.410Z,102184.59
2019-03-24T12:44:03.419Z,102304.48
2019-03-24T12:46:31.436Z,102301.53
2019-03-24T12:48:59.423Z,102295.31
2019-03-24T12:51:27.443Z,102289.77
2019-03-24T12:53:55.459Z,102284.50
2019-03-24T12:56:23.499Z,102274.45
2019-03-24T12:58:51.558Z,102279.85
2019-03-24T13:01:19.558Z,102270.28
2019-03-24T13:03:47.551Z,102272.59
2019-03-24T13:06:15.555Z,102272.67
2019-03-24T13:08:43.557Z,102258.23
2019-03-24T13:11:19.158Z,102266.72
2019-03-24T13:13:45.767Z,102251.83
2019-03-24T13:16:13.866Z,102200.89
2019-03-24T13:18:41.882Z,102240.30
2019-03-24T13:21:09.900Z,102250.73
2019-03-24T13:23:37.906Z,102215.27
2019-03-24T13:26:05.968Z,102242.02
2019-03-24T13:28:34.103Z,102246.87
2019-03-24T13:31:02.232Z,102237.23
2019-03-24T13:33:30.290Z,102236.30
2019-03-24T13:36:23.954Z,102226.98
2019-03-24T13:38:52.054Z,102228.43
2019-03-24T13:41:20.126Z,102212.09
2019-03-24T13:43:48.908Z,102199.81
2019-03-24T13:46:17.099Z,102208.14
2019-03-24T13:48:45.080Z,102209.05
2019-03-24T13:51:13.135Z,102199.06
2019-03-24T13:53:41.129Z,102199.87
2019-03-24T13:56:09.111Z,102194.08
2019-03-24T13:58:37.139Z,102191.17
2019-03-24T14:01:06.130Z,102190.13
2019-03-24T14:03:34.262Z,102186.76
2019-03-24T14:06:02.245Z,102189.55
2019-03-24T14:08:30.230Z,102179.44
2019-03-24T14:10:58.604Z,102176.20
2019-03-24T14:13:26.591Z,102177.85
2019-03-24T14:15:59.099Z,102167.12
2019-03-24T14:18:28.778Z,102159.31
2019-03-24T14:20:56.771Z,102153.69
2019-03-24T14:23:24.781Z,102152.45
2019-03-24T14:25:53.066Z,102084.59
2019-03-24T14:28:21.063Z,102145.43
2019-03-24T14:30:49.274Z,102148.61
2019-03-24T14:33:17.334Z,102145.30
2019-03-24T14:35:45.359Z,102137.97
2019-03-24T14:38:13.379Z,102103.73
2019-03-24T14:40:41.575Z,102127.23
2019-03-24T14:43:09.848Z,102120.86
2019-03-24T14:45:37.834Z,102110.95
2019-03-24T14:48:05.858Z,102108.00
2019-03-24T14:50:33.959Z,102103.20
2019-03-24T14:53:03.395Z,102099.64
2019-03-24T14:55:40.160Z,102101.59
2019-03-24T14:58:08.851Z,102109.05
2019-03-24T15:00:37.539Z,102093.82
2019-03-24T15:03:05.527Z,102083.28
2019-03-24T15:05:33.575Z,102095.80
2019-03-24T15:08:01.686Z,102087.73
2019-03-24T15:10:29.761Z,102090.54
2019-03-24T15:12:58.850Z,102087.97
2019-03-24T15:15:26.851Z,102086.78
2019-03-24T15:17:54.838Z,102078.55
2019-03-24T15:20:22.852Z,102029.91
2019-03-24T15:22:50.845Z,102081.09
2019-03-24T15:25:18.855Z,101971.91
2019-03-24T15:27:47.074Z,102086.98
2019-03-24T15:30:15.143Z,102077.70
2019-03-24T15:32:43.215Z,102071.66
2019-03-24T15:35:11.439Z,102061.67
2019-03-24T15:37:40.290Z,102061.05
2019-03-24T15:40:08.407Z,102056.73
2019-03-24T15:42:36.390Z,102055.09
2019-03-24T15:45:04.518Z,102051.19
2019-03-24T15:47:33.570Z,102059.04
2019-03-24T15:50:01.577Z,102056.73
2019-03-24T15:52:29.586Z,102050.98
2019-03-24T15:54:57.674Z,102040.16
2019-03-24T15:57:26.039Z,102040.37
2019-03-24T15:59:54.062Z,102042.78
2019-03-24T16:02:22.054Z,102036.15
2019-03-24T16:04:50.078Z,102037.04
2019-03-24T16:07:18.114Z,101994.80
2019-03-24T16:09:46.098Z,102033.80
2019-03-24T16:12:14.304Z,102040.83
2019-03-24T16:14:47.230Z,101917.97
2019-03-24T16:17:15.247Z,102037.73
2019-03-24T16:19:44.198Z,102032.48
2019-03-24T16:22:12.191Z,102033.47
2019-03-24T16:24:40.210Z,101917.66
2019-03-24T16:27:08.197Z,102024.46
2019-03-24T16:29:36.199Z,102017.80
2019-03-24T16:32:04.226Z,102011.62
2019-03-24T16:34:32.263Z,102021.91
2019-03-24T16:37:00.254Z,102015.24
2019-03-24T16:39:28.226Z,102008.63
2019-03-24T16:41:56.215Z,102008.70
2019-03-24T16:44:24.228Z,102001.04
2019-03-24T16:46:52.230Z,102001.02
2019-03-24T16:49:21.387Z,101997.20
2019-03-24T16:52:08.432Z,102004.43
2019-03-24T16:54:36.901Z,101995.92
2019-03-24T16:57:05.022Z,101954.73
2019-03-24T16:59:33.185Z,101991.80
2019-03-24T17:02:01.246Z,101979.77
2019-03-24T17:04:29.324Z,101973.31
2019-03-24T17:06:57.305Z,101979.63
2019-03-24T17:09:25.378Z,101977.50
2019-03-24T17:11:53.670Z,101977.92
2019-03-24T17:14:21.683Z,101982.16
2019-03-24T17:16:49.754Z,101966.92
2019-03-24T17:19:18.700Z,101965.55
2019-03-24T17:22:04.496Z,101959.91
2019-03-24T17:24:33.503Z,101965.61
2019-03-24T17:27:01.733Z,101957.66
2019-03-24T17:29:29.804Z,101958.23
2019-03-24T17:31:57.873Z,101958.14
2019-03-24T17:34:33.256Z,101957.36
2019-03-24T17:37:01.272Z,101964.55
2019-03-24T17:39:29.487Z,101960.65
2019-03-24T17:41:57.543Z,101875.17
2019-03-24T17:44:25.607Z,101946.80
2019-03-24T17:47:02.958Z,101848.53
2019-03-24T17:49:31.070Z,101957.41
2019-03-24T17:52:00.919Z,101961.33
2019-03-24T17:54:29.151Z,101961.30
2019-03-24T17:56:58.266Z,101960.70
2019-03-24T17:59:26.254Z,101962.24
2019-03-24T18:01:54.337Z,101950.20
2019-03-24T18:04:24.792Z,101950.06
2019-03-24T18:06:52.010Z,101946.45
2019-03-24T18:09:19.991Z,101946.30
2019-03-24T18:11:47.958Z,101942.39
2019-03-24T18:14:16.007Z,101942.02
2019-03-24T18:16:44.028Z,101946.70
2019-03-24T18:19:12.062Z,101938.45
2019-03-24T18:21:40.103Z,101944.98
2019-03-24T18:24:09.619Z,101941.44
2019-03-24T18:26:39.990Z,101936.89
2019-03-24T18:29:07.978Z,101938.71
2019-03-24T18:31:35.987Z,101945.10
2019-03-24T18:34:03.991Z,101886.81
2019-03-24T18:36:32.122Z,101925.08
2019-03-24T18:39:00.148Z,101926.58
2019-03-24T18:41:28.138Z,101922.83
2019-03-24T18:43:56.452Z,101925.23
2019-03-24T18:46:24.803Z,101932.11
2019-03-24T18:48:52.775Z,101929.97
2019-03-24T18:51:20.750Z,101923.42
2019-03-24T18:53:48.741Z,101925.21
2019-03-24T18:56:16.730Z,101919.73
2019-03-24T18:58:44.742Z,101917.60
2019-03-24T19:01:12.725Z,101926.64
2019-03-24T19:03:40.786Z,101919.63
2019-03-24T19:06:12.267Z,101920.05
2019-03-24T19:08:40.295Z,101913.29
2019-03-24T19:11:08.295Z,101909.61
2019-03-24T19:13:36.263Z,101901.03
2019-03-24T19:16:04.256Z,101893.02
2019-03-24T19:18:32.251Z,101898.86
2019-03-24T19:21:00.254Z,101893.04
2019-03-24T19:23:28.242Z,101893.09
2019-03-24T19:25:56.476Z,101886.33
2019-03-24T19:28:24.555Z,101875.17
2019-03-24T19:30:52.824Z,101868.14
2019-03-24T19:33:21.498Z,101868.11
2019-03-24T19:35:50.176Z,101862.38
2019-03-24T19:38:18.302Z,101868.09
2019-03-24T19:40:47.310Z,101861.47
2019-03-24T19:43:16.731Z,101861.03
2019-03-24T19:45:47.002Z,101856.00
2019-03-24T19:48:15.092Z,101851.02
2019-03-24T19:50:43.066Z,101848.52
2019-03-24T19:53:11.078Z,101841.25
2019-03-24T19:55:39.087Z,101842.70
2019-03-24T19:58:07.122Z,101789.55
2019-03-24T20:00:35.143Z,101837.25
2019-03-24T20:03:03.205Z,101837.58
2019-03-24T20:05:31.186Z,101831.39
2019-03-24T20:07:59.164Z,101819.25
2019-03-24T20:10:27.550Z,101816.20
2019-03-24T20:12:55.716Z,101808.03
2019-03-24T20:15:23.889Z,101800.28
2019-03-24T20:17:51.880Z,101790.19
2019-03-24T20:20:19.875Z,101782.27
2019-03-24T20:22:56.528Z,101780.78
2019-03-24T20:25:21.083Z,101769.72
2019-03-24T20:27:49.120Z,101763.55
2019-03-24T20:30:17.121Z,101757.09
2019-03-24T20:32:45.120Z,101750.69
2019-03-24T20:35:13.318Z,101748.69
2019-03-24T20:37:41.326Z,101743.59
2019-03-24T20:40:09.345Z,101737.37
2019-03-24T20:42:37.338Z,101686.02
2019-03-24T20:45:05.459Z,101730.89
2019-03-24T20:47:33.466Z,101726.29
2019-03-24T20:50:03.765Z,101722.05
2019-03-24T20:52:31.247Z,101726.77
2019-03-24T20:54:59.302Z,101722.98
2019-03-24T20:57:27.297Z,101715.67
2019-03-24T20:59:55.299Z,101717.50
2019-03-24T21:02:23.334Z,101715.52
2019-03-24T21:04:54.652Z,101714.33
2019-03-24T21:07:22.641Z,101707.45
2019-03-24T21:09:50.696Z,101698.81
2019-03-24T21:12:18.698Z,101699.81
2019-03-24T21:14:46.702Z,101695.83
2019-03-24T21:17:14.679Z,101694.03
2019-03-24T21:19:42.732Z,101692.98
2019-03-24T21:22:10.761Z,101687.40
2019-03-24T21:24:38.730Z,101677.00
2019-03-24T21:27:07.259Z,101680.92
2019-03-24T21:29:35.323Z,101672.61
2019-03-24T21:32:03.337Z,101670.80
2019-03-24T21:34:31.331Z,101671.36
2019-03-24T21:36:59.348Z,101666.52
2019-03-24T21:39:27.328Z,101613.18
2019-03-24T21:41:55.315Z,101663.55
2019-03-24T21:44:24.401Z,101656.94
2019-03-24T21:46:56.866Z,101655.13
2019-03-24T21:49:24.944Z,101650.48
2019-03-24T21:51:52.950Z,101648.13
2019-03-24T21:54:20.970Z,101642.42
2019-03-24T21:56:49.029Z,101633.59
2019-03-24T21:59:17.052Z,101630.41
2019-03-24T22:01:45.046Z,101626.33
2019-03-24T22:04:13.132Z,101627.73
2019-03-24T22:06:41.134Z,101611.16
2019-03-24T22:09:09.134Z,101609.91
2019-03-24T22:11:37.122Z,101610.91
2019-03-24T22:14:05.201Z,101494.11
2019-03-24T22:16:33.246Z,101592.30
2019-03-24T22:19:01.391Z,101589.20
2019-03-24T22:21:29.655Z,101539.55
2019-03-24T22:23:57.772Z,101575.53
2019-03-24T22:26:29.792Z,101571.55
2019-03-24T22:28:57.771Z,101564.38
2019-03-24T22:31:25.767Z,101558.16
2019-03-24T22:33:53.810Z,101547.55
2019-03-24T22:36:21.820Z,101547.72
2019-03-24T22:38:49.807Z,101541.33
2019-03-24T22:41:17.807Z,101541.24
2019-03-24T22:43:45.787Z,101529.06
2019-03-24T22:46:13.786Z,101517.10
2019-03-24T22:48:41.870Z,101512.91
2019-03-24T22:51:09.864Z,101508.73
2019-03-24T22:53:37.889Z,101504.39
2019-03-24T22:56:06.690Z,101498.35
2019-03-24T22:58:34.728Z,101489.35
2019-03-24T23:01:03.037Z,101481.32
2019-03-24T23:03:31.090Z,101479.59
2019-03-24T23:06:03.174Z,101471.20
2019-03-24T23:08:33.624Z,101464.48
2019-03-24T23:11:01.624Z,101453.00
2019-03-24T23:13:29.604Z,101450.36
2019-03-24T23:15:57.687Z,101434.03
2019-03-24T23:18:25.672Z,101435.66
2019-03-24T23:20:53.680Z,101437.95
2019-03-24T23:23:21.690Z,101428.13
2019-03-24T23:25:49.715Z,101424.72
2019-03-24T23:28:17.708Z,101416.11
2019-03-24T23:30:45.692Z,101346.69
2019-03-24T23:33:13.704Z,101386.84
2019-03-24T23:35:41.774Z,101378.72
2019-03-24T23:38:09.883Z,101375.97
2019-03-24T23:40:37.862Z,101371.38
2019-03-24T23:43:05.887Z,101362.86
2019-03-24T23:45:33.872Z,101355.55
2019-03-24T23:48:13.630Z,101350.33
2019-03-24T23:50:34.093Z,101343.09
2019-03-24T23:53:02.123Z,101340.33
2019-03-24T23:55:30.112Z,101340.77
2019-03-24T23:57:58.119Z,101329.46
